sensor_id;sensor_type;location;lat;lon;timestamp;P1;durP1;ratioP1;P2;durP2;ratioP2
18072;SDS011;9161;47.348;9.648;2024-01-25T00:01:14;0.00;;;0.00;;
18072;SDS011;9161;47.348;9.648;2024-01-25T00:06:16;0.43;;;0.07;;
18072;SDS011;9161;47.348;9.648;2024-01-25T00:11:20;0.00;;;0.00;;
18072;SDS011;9161;47.348;9.648;2024-01-25T00:16:24;0.97;;;0.20;;
18072;SDS011;9161;47.348;9.648;2024-01-25T00:21:26;0.03;;;0.03;;
18072;SDS011;9161;47.348;9.648;2024-01-25T00:26:28;0.33;;;0.10;;
18072;SDS011;9161;47.348;9.648;2024-01-25T00:31:31;0.93;;;0.20;;
18072;SDS011;9161;47.348;9.648;2024-01-25T00:36:33;0.17;;;0.07;;
18072;SDS011;9161;47.348;9.648;2024-01-25T00:41:36;3.03;;;0.30;;
18072;SDS011;9161;47.348;9.648;2024-01-25T00:46:40;0.00;;;0.00;;
18072;SDS011;9161;47.348;9.648;2024-01-25T00:51:44;1.70;;;0.20;;
18072;SDS011;9161;47.348;9.648;2024-01-25T00:56:50;0.13;;;0.10;;
18072;SDS011;9161;47.348;9.648;2024-01-25T01:01:55;0.13;;;0.10;;
18072;SDS011;9161;47.348;9.648;2024-01-25T01:07:01;0.37;;;0.13;;
18072;SDS011;9161;47.348;9.648;2024-01-25T01:12:04;0.63;;;0.10;;
18072;SDS011;9161;47.348;9.648;2024-01-25T01:17:09;0.53;;;0.30;;
18072;SDS011;9161;47.348;9.648;2024-01-25T01:22:11;3.03;;;0.27;;
18072;SDS011;9161;47.348;9.648;2024-01-25T01:27:13;0.73;;;0.10;;
18072;SDS011;9161;47.348;9.648;2024-01-25T01:32:17;0.37;;;0.10;;
18072;SDS011;9161;47.348;9.648;2024-01-25T01:37:19;1.77;;;0.50;;
18072;SDS011;9161;47.348;9.648;2024-01-25T01:42:21;0.53;;;0.20;;
18072;SDS011;9161;47.348;9.648;2024-01-25T01:47:25;0.40;;;0.10;;
18072;SDS011;9161;47.348;9.648;2024-01-25T01:52:27;0.73;;;0.30;;
18072;SDS011;9161;47.348;9.648;2024-01-25T01:57:30;0.10;;;0.10;;
18072;SDS011;9161;47.348;9.648;2024-01-25T02:02:34;0.83;;;0.13;;
18072;SDS011;9161;47.348;9.648;2024-01-25T02:07:36;0.47;;;0.20;;
18072;SDS011;9161;47.348;9.648;2024-01-25T02:12:41;0.67;;;0.10;;
18072;SDS011;9161;47.348;9.648;2024-01-25T02:17:44;0.17;;;0.10;;
18072;SDS011;9161;47.348;9.648;2024-01-25T02:22:48;2.20;;;0.20;;
18072;SDS011;9161;47.348;9.648;2024-01-25T02:27:50;3.90;;;0.10;;
18072;SDS011;9161;47.348;9.648;2024-01-25T02:32:53;0.10;;;0.10;;
18072;SDS011;9161;47.348;9.648;2024-01-25T02:37:56;1.00;;;0.10;;
18072;SDS011;9161;47.348;9.648;2024-01-25T02:42:59;0.00;;;0.00;;
18072;SDS011;9161;47.348;9.648;2024-01-25T02:48:01;2.00;;;0.07;;
18072;SDS011;9161;47.348;9.648;2024-01-25T02:53:05;0.10;;;0.00;;
18072;SDS011;9161;47.348;9.648;2024-01-25T02:58:07;0.20;;;0.10;;
18072;SDS011;9161;47.348;9.648;2024-01-25T03:03:09;0.20;;;0.00;;
18072;SDS011;9161;47.348;9.648;2024-01-25T03:08:12;0.10;;;0.00;;
18072;SDS011;9161;47.348;9.648;2024-01-25T03:13:14;2.37;;;0.10;;
18072;SDS011;9161;47.348;9.648;2024-01-25T03:18:17;0.87;;;0.10;;
18072;SDS011;9161;47.348;9.648;2024-01-25T03:23:21;0.00;;;0.00;;
18072;SDS011;9161;47.348;9.648;2024-01-25T03:28:23;0.00;;;0.00;;
18072;SDS011;9161;47.348;9.648;2024-01-25T03:33:24;0.00;;;0.00;;
18072;SDS011;9161;47.348;9.648;2024-01-25T03:38:30;0.00;;;0.00;;
18072;SDS011;9161;47.348;9.648;2024-01-25T03:43:32;0.33;;;0.10;;
18072;SDS011;9161;47.348;9.648;2024-01-25T03:48:43;0.20;;;0.00;;
18072;SDS011;9161;47.348;9.648;2024-01-25T03:53:46;0.20;;;0.20;;
18072;SDS011;9161;47.348;9.648;2024-01-25T03:58:49;0.20;;;0.10;;
18072;SDS011;9161;47.348;9.648;2024-01-25T04:03:51;0.93;;;0.10;;
18072;SDS011;9161;47.348;9.648;2024-01-25T04:08:55;0.60;;;0.20;;
18072;SDS011;9161;47.348;9.648;2024-01-25T04:13:57;0.27;;;0.20;;
18072;SDS011;9161;47.348;9.648;2024-01-25T04:19:00;0.47;;;0.30;;
18072;SDS011;9161;47.348;9.648;2024-01-25T04:24:04;0.37;;;0.20;;
18072;SDS011;9161;47.348;9.648;2024-01-25T04:29:06;0.10;;;0.00;;
18072;SDS011;9161;47.348;9.648;2024-01-25T04:34:09;0.00;;;0.00;;
18072;SDS011;9161;47.348;9.648;2024-01-25T04:39:12;0.00;;;0.00;;
18072;SDS011;9161;47.348;9.648;2024-01-25T04:44:14;0.87;;;0.00;;
18072;SDS011;9161;47.348;9.648;2024-01-25T04:49:16;0.07;;;0.00;;
18072;SDS011;9161;47.348;9.648;2024-01-25T04:54:20;0.20;;;0.10;;
18072;SDS011;9161;47.348;9.648;2024-01-25T04:59:21;0.93;;;0.20;;
18072;SDS011;9161;47.348;9.648;2024-01-25T05:04:24;0.00;;;0.00;;
18072;SDS011;9161;47.348;9.648;2024-01-25T05:09:28;0.00;;;0.00;;
18072;SDS011;9161;47.348;9.648;2024-01-25T05:14:30;0.20;;;0.03;;
18072;SDS011;9161;47.348;9.648;2024-01-25T05:19:32;0.97;;;0.33;;
18072;SDS011;9161;47.348;9.648;2024-01-25T05:24:36;0.60;;;0.30;;
18072;SDS011;9161;47.348;9.648;2024-01-25T05:29:38;1.00;;;0.33;;
18072;SDS011;9161;47.348;9.648;2024-01-25T05:34:40;3.03;;;1.10;;
18072;SDS011;9161;47.348;9.648;2024-01-25T05:39:44;1.50;;;0.30;;
18072;SDS011;9161;47.348;9.648;2024-01-25T05:44:46;0.03;;;0.00;;
18072;SDS011;9161;47.348;9.648;2024-01-25T05:49:48;0.10;;;0.10;;
18072;SDS011;9161;47.348;9.648;2024-01-25T05:54:51;0.00;;;0.00;;
18072;SDS011;9161;47.348;9.648;2024-01-25T05:59:54;0.83;;;0.20;;
18072;SDS011;9161;47.348;9.648;2024-01-25T06:04:56;0.10;;;0.10;;
18072;SDS011;9161;47.348;9.648;2024-01-25T06:10:03;1.17;;;0.10;;
18072;SDS011;9161;47.348;9.648;2024-01-25T06:15:11;1.20;;;0.40;;
18072;SDS011;9161;47.348;9.648;2024-01-25T06:20:13;1.40;;;0.10;;
18072;SDS011;9161;47.348;9.648;2024-01-25T06:25:18;0.50;;;0.10;;
18072;SDS011;9161;47.348;9.648;2024-01-25T06:30:20;0.30;;;0.20;;
18072;SDS011;9161;47.348;9.648;2024-01-25T06:35:22;0.67;;;0.20;;
18072;SDS011;9161;47.348;9.648;2024-01-25T06:40:26;0.33;;;0.17;;
18072;SDS011;9161;47.348;9.648;2024-01-25T06:45:28;0.30;;;0.10;;
18072;SDS011;9161;47.348;9.648;2024-01-25T06:50:31;0.50;;;0.20;;
18072;SDS011;9161;47.348;9.648;2024-01-25T06:55:35;0.20;;;0.10;;
18072;SDS011;9161;47.348;9.648;2024-01-25T07:00:38;0.93;;;0.10;;
18072;SDS011;9161;47.348;9.648;2024-01-25T07:05:43;0.73;;;0.30;;
18072;SDS011;9161;47.348;9.648;2024-01-25T07:10:46;0.93;;;0.17;;
18072;SDS011;9161;47.348;9.648;2024-01-25T07:15:48;0.63;;;0.30;;
18072;SDS011;9161;47.348;9.648;2024-01-25T07:20:50;3.83;;;0.30;;
18072;SDS011;9161;47.348;9.648;2024-01-25T07:25:53;1.47;;;0.50;;
18072;SDS011;9161;47.348;9.648;2024-01-25T07:30:55;1.80;;;0.30;;
18072;SDS011;9161;47.348;9.648;2024-01-25T07:35:58;2.90;;;0.30;;
18072;SDS011;9161;47.348;9.648;2024-01-25T07:41:01;1.27;;;0.50;;
18072;SDS011;9161;47.348;9.648;2024-01-25T07:46:04;3.07;;;0.57;;
18072;SDS011;9161;47.348;9.648;2024-01-25T07:51:10;1.43;;;0.40;;
18072;SDS011;9161;47.348;9.648;2024-01-25T07:56:15;1.03;;;0.40;;
18072;SDS011;9161;47.348;9.648;2024-01-25T08:01:17;0.60;;;0.30;;
18072;SDS011;9161;47.348;9.648;2024-01-25T08:06:20;1.30;;;0.40;;
18072;SDS011;9161;47.348;9.648;2024-01-25T08:11:24;1.67;;;0.30;;
18072;SDS011;9161;47.348;9.648;2024-01-25T08:16:26;0.33;;;0.20;;
18072;SDS011;9161;47.348;9.648;2024-01-25T08:21:29;0.70;;;0.37;;
18072;SDS011;9161;47.348;9.648;2024-01-25T08:26:33;2.37;;;0.40;;
18072;SDS011;9161;47.348;9.648;2024-01-25T08:31:35;0.93;;;0.30;;
18072;SDS011;9161;47.348;9.648;2024-01-25T08:36:37;1.00;;;0.27;;
18072;SDS011;9161;47.348;9.648;2024-01-25T08:41:41;0.33;;;0.20;;
18072;SDS011;9161;47.348;9.648;2024-01-25T08:46:45;0.90;;;0.27;;
18072;SDS011;9161;47.348;9.648;2024-01-25T08:51:47;0.20;;;0.20;;
18072;SDS011;9161;47.348;9.648;2024-01-25T08:56:51;4.03;;;0.50;;
18072;SDS011;9161;47.348;9.648;2024-01-25T09:01:53;0.50;;;0.20;;
18072;SDS011;9161;47.348;9.648;2024-01-25T09:06:55;1.20;;;0.30;;
18072;SDS011;9161;47.348;9.648;2024-01-25T09:11:59;1.17;;;0.30;;
18072;SDS011;9161;47.348;9.648;2024-01-25T09:17:01;1.00;;;0.60;;
18072;SDS011;9161;47.348;9.648;2024-01-25T09:22:03;0.83;;;0.50;;
18072;SDS011;9161;47.348;9.648;2024-01-25T09:27:07;2.97;;;0.73;;
18072;SDS011;9161;47.348;9.648;2024-01-25T09:32:09;1.00;;;0.60;;
18072;SDS011;9161;47.348;9.648;2024-01-25T09:37:13;1.13;;;0.30;;
18072;SDS011;9161;47.348;9.648;2024-01-25T09:42:17;1.27;;;0.50;;
18072;SDS011;9161;47.348;9.648;2024-01-25T09:47:20;0.83;;;0.43;;
18072;SDS011;9161;47.348;9.648;2024-01-25T09:52:24;1.80;;;0.97;;
18072;SDS011;9161;47.348;9.648;2024-01-25T09:57:31;1.23;;;0.73;;
18072;SDS011;9161;47.348;9.648;2024-01-25T10:02:36;2.53;;;0.77;;
18072;SDS011;9161;47.348;9.648;2024-01-25T10:07:40;2.20;;;0.50;;
18072;SDS011;9161;47.348;9.648;2024-01-25T10:12:45;1.57;;;0.93;;
18072;SDS011;9161;47.348;9.648;2024-01-25T10:17:47;1.77;;;0.60;;
18072;SDS011;9161;47.348;9.648;2024-01-25T10:23:11;1.03;;;0.40;;
18072;SDS011;9161;47.348;9.648;2024-01-25T10:28:15;1.13;;;0.53;;
18072;SDS011;9161;47.348;9.648;2024-01-25T10:33:18;0.53;;;0.37;;
18072;SDS011;9161;47.348;9.648;2024-01-25T10:38:22;1.87;;;0.60;;
18072;SDS011;9161;47.348;9.648;2024-01-25T10:43:27;1.20;;;0.70;;
18072;SDS011;9161;47.348;9.648;2024-01-25T10:48:31;1.20;;;0.57;;
18072;SDS011;9161;47.348;9.648;2024-01-25T10:53:34;10.10;;;2.60;;
18072;SDS011;9161;47.348;9.648;2024-01-25T10:58:40;2.20;;;0.93;;
18072;SDS011;9161;47.348;9.648;2024-01-25T11:03:42;1.77;;;0.90;;
18072;SDS011;9161;47.348;9.648;2024-01-25T11:08:48;1.60;;;0.60;;
18072;SDS011;9161;47.348;9.648;2024-01-25T11:13:52;4.53;;;1.03;;
18072;SDS011;9161;47.348;9.648;2024-01-25T11:18:58;3.50;;;0.90;;
18072;SDS011;9161;47.348;9.648;2024-01-25T11:24:11;2.47;;;0.90;;
18072;SDS011;9161;47.348;9.648;2024-01-25T11:29:15;2.77;;;0.70;;
18072;SDS011;9161;47.348;9.648;2024-01-25T11:34:20;1.53;;;0.70;;
18072;SDS011;9161;47.348;9.648;2024-01-25T11:39:23;2.30;;;1.03;;
18072;SDS011;9161;47.348;9.648;2024-01-25T11:44:27;2.40;;;0.57;;
18072;SDS011;9161;47.348;9.648;2024-01-25T11:49:29;1.00;;;0.67;;
18072;SDS011;9161;47.348;9.648;2024-01-25T11:54:31;1.70;;;0.70;;
18072;SDS011;9161;47.348;9.648;2024-01-25T11:59:36;1.90;;;0.83;;
18072;SDS011;9161;47.348;9.648;2024-01-25T12:04:39;1.70;;;0.90;;
18072;SDS011;9161;47.348;9.648;2024-01-25T12:09:42;2.23;;;1.20;;
18072;SDS011;9161;47.348;9.648;2024-01-25T12:14:46;2.47;;;1.30;;
18072;SDS011;9161;47.348;9.648;2024-01-25T12:19:48;3.73;;;1.60;;
18072;SDS011;9161;47.348;9.648;2024-01-25T12:24:53;3.67;;;1.40;;
18072;SDS011;9161;47.348;9.648;2024-01-25T12:30:01;5.47;;;2.23;;
18072;SDS011;9161;47.348;9.648;2024-01-25T12:35:04;3.40;;;1.40;;
18072;SDS011;9161;47.348;9.648;2024-01-25T12:40:08;2.87;;;1.30;;
18072;SDS011;9161;47.348;9.648;2024-01-25T12:58:14;1.80;;;1.00;;
18072;SDS011;9161;47.348;9.648;2024-01-25T13:03:18;1.33;;;0.43;;
18072;SDS011;9161;47.348;9.648;2024-01-25T13:08:20;1.20;;;0.80;;
18072;SDS011;9161;47.348;9.648;2024-01-25T13:13:23;1.20;;;0.90;;
18072;SDS011;9161;47.348;9.648;2024-01-25T13:18:25;4.83;;;1.00;;
18072;SDS011;9161;47.348;9.648;2024-01-25T13:23:27;1.20;;;0.80;;
18072;SDS011;9161;47.348;9.648;2024-01-25T13:28:32;1.00;;;0.70;;
18072;SDS011;9161;47.348;9.648;2024-01-25T13:33:34;0.90;;;0.50;;
18072;SDS011;9161;47.348;9.648;2024-01-25T13:38:36;2.17;;;0.67;;
18072;SDS011;9161;47.348;9.648;2024-01-25T13:43:42;1.17;;;0.60;;
18072;SDS011;9161;47.348;9.648;2024-01-25T13:48:44;0.67;;;0.50;;
18072;SDS011;9161;47.348;9.648;2024-01-25T13:53:46;1.00;;;0.67;;
18072;SDS011;9161;47.348;9.648;2024-01-25T13:58:52;1.93;;;0.90;;
18072;SDS011;9161;47.348;9.648;2024-01-25T14:03:56;5.20;;;1.70;;
18072;SDS011;9161;47.348;9.648;2024-01-25T14:08:58;2.63;;;1.30;;
18072;SDS011;9161;47.348;9.648;2024-01-25T14:14:03;3.00;;;1.30;;
18072;SDS011;9161;47.348;9.648;2024-01-25T14:19:05;2.37;;;1.43;;
18072;SDS011;9161;47.348;9.648;2024-01-25T14:24:09;2.17;;;1.20;;
18072;SDS011;9161;47.348;9.648;2024-01-25T14:29:14;2.07;;;1.23;;
18072;SDS011;9161;47.348;9.648;2024-01-25T14:34:17;2.67;;;1.53;;
18072;SDS011;9161;47.348;9.648;2024-01-25T14:39:19;1.87;;;1.00;;
18072;SDS011;9161;47.348;9.648;2024-01-25T14:44:24;1.03;;;0.63;;
18072;SDS011;9161;47.348;9.648;2024-01-25T14:49:26;0.90;;;0.40;;
18072;SDS011;9161;47.348;9.648;2024-01-25T14:54:28;0.80;;;0.50;;
18072;SDS011;9161;47.348;9.648;2024-01-25T14:59:32;1.90;;;0.57;;
18072;SDS011;9161;47.348;9.648;2024-01-25T15:04:35;1.30;;;0.70;;
18072;SDS011;9161;47.348;9.648;2024-01-25T15:09:37;2.10;;;0.80;;
18072;SDS011;9161;47.348;9.648;2024-01-25T15:14:41;2.33;;;1.17;;
18072;SDS011;9161;47.348;9.648;2024-01-25T15:19:44;2.20;;;0.73;;
18072;SDS011;9161;47.348;9.648;2024-01-25T15:24:47;1.30;;;0.70;;
18072;SDS011;9161;47.348;9.648;2024-01-25T15:29:52;1.80;;;0.60;;
18072;SDS011;9161;47.348;9.648;2024-01-25T15:34:55;3.57;;;1.33;;
18072;SDS011;9161;47.348;9.648;2024-01-25T15:39:57;2.27;;;1.33;;
18072;SDS011;9161;47.348;9.648;2024-01-25T15:45:01;4.80;;;1.70;;
18072;SDS011;9161;47.348;9.648;2024-01-25T15:50:04;3.73;;;1.70;;
18072;SDS011;9161;47.348;9.648;2024-01-25T15:55:19;3.60;;;2.00;;
18072;SDS011;9161;47.348;9.648;2024-01-25T16:00:24;4.27;;;2.17;;
18072;SDS011;9161;47.348;9.648;2024-01-25T16:05:28;3.73;;;1.80;;
18072;SDS011;9161;47.348;9.648;2024-01-25T16:10:32;4.40;;;1.70;;
18072;SDS011;9161;47.348;9.648;2024-01-25T16:15:45;4.83;;;2.37;;
18072;SDS011;9161;47.348;9.648;2024-01-25T16:20:50;7.57;;;3.20;;
18072;SDS011;9161;47.348;9.648;2024-01-25T16:25:55;8.37;;;4.40;;
18072;SDS011;9161;47.348;9.648;2024-01-25T16:30:58;11.37;;;5.70;;
18072;SDS011;9161;47.348;9.648;2024-01-25T16:36:01;7.73;;;3.83;;
18072;SDS011;9161;47.348;9.648;2024-01-25T16:41:04;6.90;;;3.60;;
18072;SDS011;9161;47.348;9.648;2024-01-25T16:46:07;8.30;;;4.67;;
18072;SDS011;9161;47.348;9.648;2024-01-25T16:51:10;9.23;;;4.87;;
18072;SDS011;9161;47.348;9.648;2024-01-25T16:56:12;8.93;;;4.90;;
18072;SDS011;9161;47.348;9.648;2024-01-25T17:01:16;9.13;;;5.00;;
18072;SDS011;9161;47.348;9.648;2024-01-25T17:06:18;9.73;;;5.23;;
18072;SDS011;9161;47.348;9.648;2024-01-25T17:11:22;7.43;;;4.50;;
18072;SDS011;9161;47.348;9.648;2024-01-25T17:16:27;11.10;;;5.10;;
18072;SDS011;9161;47.348;9.648;2024-01-25T17:21:29;10.97;;;5.17;;
18072;SDS011;9161;47.348;9.648;2024-01-25T17:26:32;11.13;;;6.30;;
18072;SDS011;9161;47.348;9.648;2024-01-25T17:31:36;12.70;;;7.13;;
18072;SDS011;9161;47.348;9.648;2024-01-25T17:36:38;16.63;;;9.20;;
18072;SDS011;9161;47.348;9.648;2024-01-25T17:41:40;18.37;;;7.63;;
18072;SDS011;9161;47.348;9.648;2024-01-25T17:46:44;13.37;;;6.10;;
18072;SDS011;9161;47.348;9.648;2024-01-25T17:51:47;10.77;;;6.23;;
18072;SDS011;9161;47.348;9.648;2024-01-25T17:56:50;11.70;;;6.30;;
18072;SDS011;9161;47.348;9.648;2024-01-25T18:01:53;18.63;;;9.70;;
18072;SDS011;9161;47.348;9.648;2024-01-25T18:06:56;22.83;;;11.00;;
18072;SDS011;9161;47.348;9.648;2024-01-25T18:11:58;17.00;;;7.73;;
18072;SDS011;9161;47.348;9.648;2024-01-25T18:17:02;14.30;;;7.40;;
18072;SDS011;9161;47.348;9.648;2024-01-25T18:22:05;16.63;;;7.57;;
18072;SDS011;9161;47.348;9.648;2024-01-25T18:27:10;16.40;;;8.17;;
18072;SDS011;9161;47.348;9.648;2024-01-25T18:32:15;17.00;;;8.83;;
18072;SDS011;9161;47.348;9.648;2024-01-25T18:37:18;20.23;;;9.37;;
18072;SDS011;9161;47.348;9.648;2024-01-25T18:42:22;19.17;;;9.57;;
18072;SDS011;9161;47.348;9.648;2024-01-25T18:47:27;23.47;;;10.23;;
18072;SDS011;9161;47.348;9.648;2024-01-25T18:52:31;23.93;;;10.27;;
18072;SDS011;9161;47.348;9.648;2024-01-25T18:57:38;18.77;;;8.17;;
18072;SDS011;9161;47.348;9.648;2024-01-25T19:02:49;17.73;;;9.37;;
18072;SDS011;9161;47.348;9.648;2024-01-25T19:07:56;16.23;;;8.13;;
18072;SDS011;9161;47.348;9.648;2024-01-25T19:13:01;23.40;;;9.00;;
18072;SDS011;9161;47.348;9.648;2024-01-25T19:18:10;22.30;;;11.10;;
18072;SDS011;9161;47.348;9.648;2024-01-25T19:23:15;23.03;;;10.07;;
18072;SDS011;9161;47.348;9.648;2024-01-25T19:28:22;20.57;;;9.53;;
18072;SDS011;9161;47.348;9.648;2024-01-25T19:33:29;17.57;;;8.20;;
18072;SDS011;9161;47.348;9.648;2024-01-25T19:38:34;16.80;;;7.87;;
18072;SDS011;9161;47.348;9.648;2024-01-25T19:43:42;23.17;;;8.97;;
18072;SDS011;9161;47.348;9.648;2024-01-25T19:48:50;19.47;;;8.70;;
18072;SDS011;9161;47.348;9.648;2024-01-25T19:53:56;21.33;;;9.27;;
18072;SDS011;9161;47.348;9.648;2024-01-25T19:59:02;24.23;;;11.23;;
18072;SDS011;9161;47.348;9.648;2024-01-25T20:04:10;21.80;;;10.90;;
18072;SDS011;9161;47.348;9.648;2024-01-25T20:09:16;26.80;;;12.27;;
18072;SDS011;9161;47.348;9.648;2024-01-25T20:14:22;21.23;;;10.13;;
18072;SDS011;9161;47.348;9.648;2024-01-25T20:19:29;24.23;;;10.10;;
18072;SDS011;9161;47.348;9.648;2024-01-25T20:24:36;22.87;;;10.37;;
18072;SDS011;9161;47.348;9.648;2024-01-25T20:29:42;19.43;;;9.23;;
18072;SDS011;9161;47.348;9.648;2024-01-25T20:34:51;20.63;;;10.40;;
18072;SDS011;9161;47.348;9.648;2024-01-25T20:39:57;27.70;;;11.43;;
18072;SDS011;9161;47.348;9.648;2024-01-25T20:45:09;17.00;;;7.60;;
18072;SDS011;9161;47.348;9.648;2024-01-25T20:50:16;19.53;;;9.33;;
18072;SDS011;9161;47.348;9.648;2024-01-25T20:55:35;20.13;;;9.93;;
18072;SDS011;9161;47.348;9.648;2024-01-25T21:00:39;18.77;;;8.53;;
18072;SDS011;9161;47.348;9.648;2024-01-25T21:05:44;16.90;;;8.03;;
18072;SDS011;9161;47.348;9.648;2024-01-25T21:10:47;24.00;;;8.37;;
18072;SDS011;9161;47.348;9.648;2024-01-25T21:15:50;17.90;;;9.07;;
18072;SDS011;9161;47.348;9.648;2024-01-25T21:20:54;12.83;;;6.07;;
18072;SDS011;9161;47.348;9.648;2024-01-25T21:25:57;15.33;;;6.93;;
18072;SDS011;9161;47.348;9.648;2024-01-25T21:30:59;11.73;;;6.17;;
18072;SDS011;9161;47.348;9.648;2024-01-25T21:36:05;15.13;;;6.63;;
18072;SDS011;9161;47.348;9.648;2024-01-25T21:41:08;14.37;;;7.40;;
18072;SDS011;9161;47.348;9.648;2024-01-25T21:46:12;16.50;;;8.13;;
18072;SDS011;9161;47.348;9.648;2024-01-25T21:51:15;20.13;;;9.43;;
18072;SDS011;9161;47.348;9.648;2024-01-25T21:56:18;15.67;;;8.80;;
18072;SDS011;9161;47.348;9.648;2024-01-25T22:01:20;18.00;;;8.47;;
18072;SDS011;9161;47.348;9.648;2024-01-25T22:06:24;17.27;;;8.67;;
18072;SDS011;9161;47.348;9.648;2024-01-25T22:11:27;20.43;;;10.10;;
18072;SDS011;9161;47.348;9.648;2024-01-25T22:16:29;17.57;;;9.17;;
18072;SDS011;9161;47.348;9.648;2024-01-25T22:21:33;15.17;;;6.40;;
18072;SDS011;9161;47.348;9.648;2024-01-25T22:26:36;9.87;;;6.00;;
18072;SDS011;9161;47.348;9.648;2024-01-25T22:31:38;9.80;;;5.93;;
18072;SDS011;9161;47.348;9.648;2024-01-25T22:36:42;10.90;;;5.00;;
18072;SDS011;9161;47.348;9.648;2024-01-25T22:41:44;10.93;;;6.10;;
18072;SDS011;9161;47.348;9.648;2024-01-25T22:46:47;11.17;;;5.27;;
18072;SDS011;9161;47.348;9.648;2024-01-25T22:52:03;11.63;;;6.33;;
18072;SDS011;9161;47.348;9.648;2024-01-25T22:57:05;11.07;;;5.70;;
18072;SDS011;9161;47.348;9.648;2024-01-25T23:02:08;11.67;;;6.10;;
18072;SDS011;9161;47.348;9.648;2024-01-25T23:07:12;10.30;;;4.80;;
18072;SDS011;9161;47.348;9.648;2024-01-25T23:12:14;11.93;;;5.10;;
18072;SDS011;9161;47.348;9.648;2024-01-25T23:17:16;9.67;;;4.97;;
18072;SDS011;9161;47.348;9.648;2024-01-25T23:22:20;12.10;;;5.20;;
18072;SDS011;9161;47.348;9.648;2024-01-25T23:27:22;9.93;;;5.20;;
18072;SDS011;9161;47.348;9.648;2024-01-25T23:32:24;10.63;;;5.63;;
18072;SDS011;9161;47.348;9.648;2024-01-25T23:37:28;10.33;;;5.07;;
18072;SDS011;9161;47.348;9.648;2024-01-25T23:42:30;10.43;;;4.97;;
18072;SDS011;9161;47.348;9.648;2024-01-25T23:47:33;8.47;;;4.33;;
18072;SDS011;9161;47.348;9.648;2024-01-25T23:52:37;6.10;;;3.53;;
18072;SDS011;9161;47.348;9.648;2024-01-25T23:57:39;8.33;;;4.10;;
